sensor_id;sensor_type;location;lat;lon;timestamp;P1;durP1;ratioP1;P2;durP2;ratioP2
21705;SDS011;11014;53.076;18.208;2022-08-18T00:00:04;18.80;;;16.35;;
21705;SDS011;11014;53.076;18.208;2022-08-18T00:03:04;17.38;;;15.05;;
21705;SDS011;11014;53.076;18.208;2022-08-18T00:05:55;18.65;;;15.70;;
21705;SDS011;11014;53.076;18.208;2022-08-18T00:08:23;16.85;;;15.15;;
21705;SDS011;11014;53.076;18.208;2022-08-18T00:10:52;17.80;;;15.85;;
21705;SDS011;11014;53.076;18.208;2022-08-18T00:13:21;20.40;;;15.23;;
21705;SDS011;11014;53.076;18.208;2022-08-18T00:15:49;17.45;;;15.63;;
21705;SDS011;11014;53.076;18.208;2022-08-18T00:18:18;20.13;;;15.75;;
21705;SDS011;11014;53.076;18.208;2022-08-18T00:20:46;16.50;;;14.90;;
21705;SDS011;11014;53.076;18.208;2022-08-18T00:23:15;17.23;;;15.25;;
21705;SDS011;11014;53.076;18.208;2022-08-18T00:25:44;17.33;;;15.63;;
21705;SDS011;11014;53.076;18.208;2022-08-18T00:28:12;17.67;;;15.25;;
21705;SDS011;11014;53.076;18.208;2022-08-18T00:30:41;16.70;;;15.00;;
21705;SDS011;11014;53.076;18.208;2022-08-18T00:33:09;17.58;;;15.77;;
21705;SDS011;11014;53.076;18.208;2022-08-18T00:35:38;17.67;;;15.88;;
21705;SDS011;11014;53.076;18.208;2022-08-18T00:38:06;17.88;;;16.13;;
21705;SDS011;11014;53.076;18.208;2022-08-18T00:40:51;17.33;;;14.90;;
21705;SDS011;11014;53.076;18.208;2022-08-18T00:43:41;18.05;;;16.20;;
21705;SDS011;11014;53.076;18.208;2022-08-18T00:46:18;19.17;;;15.38;;
21705;SDS011;11014;53.076;18.208;2022-08-18T00:48:49;17.02;;;15.38;;
21705;SDS011;11014;53.076;18.208;2022-08-18T00:51:33;17.30;;;15.55;;
21705;SDS011;11014;53.076;18.208;2022-08-18T00:54:26;19.75;;;16.15;;
21705;SDS011;11014;53.076;18.208;2022-08-18T00:56:58;19.02;;;16.52;;
21705;SDS011;11014;53.076;18.208;2022-08-18T00:59:39;18.58;;;16.55;;
21705;SDS011;11014;53.076;18.208;2022-08-18T01:02:23;19.13;;;16.27;;
21705;SDS011;11014;53.076;18.208;2022-08-18T01:04:57;18.13;;;16.23;;
21705;SDS011;11014;53.076;18.208;2022-08-18T01:07:35;22.17;;;16.35;;
21705;SDS011;11014;53.076;18.208;2022-08-18T01:10:17;18.10;;;16.20;;
21705;SDS011;11014;53.076;18.208;2022-08-18T01:12:49;19.38;;;17.23;;
21705;SDS011;11014;53.076;18.208;2022-08-18T01:15:20;18.42;;;16.52;;
21705;SDS011;11014;53.076;18.208;2022-08-18T01:17:57;18.55;;;16.48;;
21705;SDS011;11014;53.076;18.208;2022-08-18T01:20:48;19.13;;;16.60;;
21705;SDS011;11014;53.076;18.208;2022-08-18T01:23:37;18.80;;;16.77;;
21705;SDS011;11014;53.076;18.208;2022-08-18T01:26:07;18.23;;;16.42;;
21705;SDS011;11014;53.076;18.208;2022-08-18T01:28:37;17.88;;;15.98;;
21705;SDS011;11014;53.076;18.208;2022-08-18T01:31:08;19.25;;;16.63;;
21705;SDS011;11014;53.076;18.208;2022-08-18T01:33:42;18.10;;;16.30;;
21705;SDS011;11014;53.076;18.208;2022-08-18T01:38:44;18.70;;;16.67;;
21705;SDS011;11014;53.076;18.208;2022-08-18T01:41:16;17.98;;;15.98;;
21705;SDS011;11014;53.076;18.208;2022-08-18T01:43:56;18.40;;;16.52;;
21705;SDS011;11014;53.076;18.208;2022-08-18T01:46:27;18.27;;;16.42;;
21705;SDS011;11014;53.076;18.208;2022-08-18T01:48:57;17.87;;;16.07;;
21705;SDS011;11014;53.076;18.208;2022-08-18T01:51:28;17.63;;;15.75;;
21705;SDS011;11014;53.076;18.208;2022-08-18T01:54:12;18.90;;;16.63;;
21705;SDS011;11014;53.076;18.208;2022-08-18T01:56:41;17.75;;;15.70;;
21705;SDS011;11014;53.076;18.208;2022-08-18T01:59:10;17.65;;;15.85;;
21705;SDS011;11014;53.076;18.208;2022-08-18T02:04:17;18.42;;;16.45;;
21705;SDS011;11014;53.076;18.208;2022-08-18T02:07:05;17.48;;;15.68;;
21705;SDS011;11014;53.076;18.208;2022-08-18T02:09:37;18.35;;;15.93;;
21705;SDS011;11014;53.076;18.208;2022-08-18T02:12:06;17.42;;;15.63;;
21705;SDS011;11014;53.076;18.208;2022-08-18T02:14:35;17.25;;;15.45;;
21705;SDS011;11014;53.076;18.208;2022-08-18T02:17:05;16.70;;;15.07;;
21705;SDS011;11014;53.076;18.208;2022-08-18T02:19:36;17.60;;;15.80;;
21705;SDS011;11014;53.076;18.208;2022-08-18T02:22:07;17.30;;;15.52;;
21705;SDS011;11014;53.076;18.208;2022-08-18T02:24:39;17.60;;;15.90;;
21705;SDS011;11014;53.076;18.208;2022-08-18T02:27:09;17.75;;;15.85;;
21705;SDS011;11014;53.076;18.208;2022-08-18T02:29:38;22.15;;;18.42;;
21705;SDS011;11014;53.076;18.208;2022-08-18T02:32:07;20.58;;;18.38;;
21705;SDS011;11014;53.076;18.208;2022-08-18T02:34:35;23.08;;;19.25;;
21705;SDS011;11014;53.076;18.208;2022-08-18T02:37:04;24.00;;;19.40;;
21705;SDS011;11014;53.076;18.208;2022-08-18T02:39:33;23.08;;;20.52;;
21705;SDS011;11014;53.076;18.208;2022-08-18T02:42:05;22.92;;;20.10;;
21705;SDS011;11014;53.076;18.208;2022-08-18T02:44:34;23.48;;;20.80;;
21705;SDS011;11014;53.076;18.208;2022-08-18T02:47:02;22.98;;;20.23;;
21705;SDS011;11014;53.076;18.208;2022-08-18T02:49:31;23.40;;;20.45;;
21705;SDS011;11014;53.076;18.208;2022-08-18T02:52:00;23.13;;;20.63;;
21705;SDS011;11014;53.076;18.208;2022-08-18T02:54:28;24.67;;;22.08;;
21705;SDS011;11014;53.076;18.208;2022-08-18T02:56:56;25.27;;;21.67;;
21705;SDS011;11014;53.076;18.208;2022-08-18T02:59:25;25.30;;;21.52;;
21705;SDS011;11014;53.076;18.208;2022-08-18T03:01:58;23.73;;;21.08;;
21705;SDS011;11014;53.076;18.208;2022-08-18T03:04:27;24.20;;;19.77;;
21705;SDS011;11014;53.076;18.208;2022-08-18T03:06:58;24.52;;;21.17;;
21705;SDS011;11014;53.076;18.208;2022-08-18T03:09:29;22.23;;;19.88;;
21705;SDS011;11014;53.076;18.208;2022-08-18T03:11:58;23.33;;;20.83;;
21705;SDS011;11014;53.076;18.208;2022-08-18T03:14:27;23.02;;;19.75;;
21705;SDS011;11014;53.076;18.208;2022-08-18T03:16:56;23.35;;;20.92;;
21705;SDS011;11014;53.076;18.208;2022-08-18T03:19:26;22.52;;;20.13;;
21705;SDS011;11014;53.076;18.208;2022-08-18T03:21:57;25.73;;;21.67;;
21705;SDS011;11014;53.076;18.208;2022-08-18T03:24:30;25.30;;;21.52;;
21705;SDS011;11014;53.076;18.208;2022-08-18T03:27:00;25.58;;;21.48;;
21705;SDS011;11014;53.076;18.208;2022-08-18T03:29:34;24.13;;;21.58;;
21705;SDS011;11014;53.076;18.208;2022-08-18T03:32:03;26.08;;;22.85;;
21705;SDS011;11014;53.076;18.208;2022-08-18T03:34:33;24.10;;;21.50;;
21705;SDS011;11014;53.076;18.208;2022-08-18T03:37:02;26.10;;;21.95;;
21705;SDS011;11014;53.076;18.208;2022-08-18T03:39:31;25.30;;;21.88;;
21705;SDS011;11014;53.076;18.208;2022-08-18T03:41:59;23.33;;;20.92;;
21705;SDS011;11014;53.076;18.208;2022-08-18T03:44:33;26.15;;;21.77;;
21705;SDS011;11014;53.076;18.208;2022-08-18T03:47:06;26.27;;;21.95;;
21705;SDS011;11014;53.076;18.208;2022-08-18T03:49:36;24.30;;;21.27;;
21705;SDS011;11014;53.076;18.208;2022-08-18T03:52:08;23.45;;;20.98;;
21705;SDS011;11014;53.076;18.208;2022-08-18T03:54:38;23.02;;;20.63;;
21705;SDS011;11014;53.076;18.208;2022-08-18T03:57:07;22.40;;;20.05;;
21705;SDS011;11014;53.076;18.208;2022-08-18T03:59:37;23.65;;;21.20;;
21705;SDS011;11014;53.076;18.208;2022-08-18T04:04:37;23.33;;;20.83;;
21705;SDS011;11014;53.076;18.208;2022-08-18T04:07:10;22.98;;;20.58;;
21705;SDS011;11014;53.076;18.208;2022-08-18T04:09:41;21.83;;;19.50;;
21705;SDS011;11014;53.076;18.208;2022-08-18T04:12:11;21.80;;;19.40;;
21705;SDS011;11014;53.076;18.208;2022-08-18T04:14:44;20.73;;;18.45;;
21705;SDS011;11014;53.076;18.208;2022-08-18T04:17:17;20.98;;;18.77;;
21705;SDS011;11014;53.076;18.208;2022-08-18T04:19:55;22.40;;;20.00;;
21705;SDS011;11014;53.076;18.208;2022-08-18T04:22:24;24.92;;;22.23;;
21705;SDS011;11014;53.076;18.208;2022-08-18T04:24:53;28.10;;;21.92;;
21705;SDS011;11014;53.076;18.208;2022-08-18T04:27:25;28.40;;;23.15;;
21705;SDS011;11014;53.076;18.208;2022-08-18T04:29:55;30.15;;;24.88;;
21705;SDS011;11014;53.076;18.208;2022-08-18T04:35:22;30.48;;;24.20;;
21705;SDS011;11014;53.076;18.208;2022-08-18T04:37:51;29.45;;;24.67;;
21705;SDS011;11014;53.076;18.208;2022-08-18T04:40:20;31.05;;;24.88;;
21705;SDS011;11014;53.076;18.208;2022-08-18T04:42:52;29.13;;;24.90;;
21705;SDS011;11014;53.076;18.208;2022-08-18T04:45:44;31.23;;;24.67;;
21705;SDS011;11014;53.076;18.208;2022-08-18T04:48:14;29.80;;;24.73;;
21705;SDS011;11014;53.076;18.208;2022-08-18T04:50:44;29.35;;;23.67;;
21705;SDS011;11014;53.076;18.208;2022-08-18T04:53:12;28.35;;;23.60;;
21705;SDS011;11014;53.076;18.208;2022-08-18T04:55:59;27.15;;;23.35;;
21705;SDS011;11014;53.076;18.208;2022-08-18T04:58:28;24.15;;;21.30;;
21705;SDS011;11014;53.076;18.208;2022-08-18T05:00:57;29.92;;;22.33;;
21705;SDS011;11014;53.076;18.208;2022-08-18T05:03:27;27.73;;;22.83;;
21705;SDS011;11014;53.076;18.208;2022-08-18T05:05:56;24.70;;;21.75;;
21705;SDS011;11014;53.076;18.208;2022-08-18T05:08:26;26.35;;;22.77;;
21705;SDS011;11014;53.076;18.208;2022-08-18T05:10:55;28.00;;;22.48;;
21705;SDS011;11014;53.076;18.208;2022-08-18T05:13:30;28.80;;;21.42;;
21705;SDS011;11014;53.076;18.208;2022-08-18T05:15:59;30.52;;;21.63;;
21705;SDS011;11014;53.076;18.208;2022-08-18T05:18:43;27.02;;;22.33;;
21705;SDS011;11014;53.076;18.208;2022-08-18T05:21:12;26.50;;;22.02;;
21705;SDS011;11014;53.076;18.208;2022-08-18T05:23:41;31.25;;;23.27;;
21705;SDS011;11014;53.076;18.208;2022-08-18T05:26:11;28.00;;;21.60;;
21705;SDS011;11014;53.076;18.208;2022-08-18T05:28:44;27.33;;;21.38;;
21705;SDS011;11014;53.076;18.208;2022-08-18T05:31:14;27.65;;;21.17;;
21705;SDS011;11014;53.076;18.208;2022-08-18T05:33:46;28.17;;;20.98;;
21705;SDS011;11014;53.076;18.208;2022-08-18T05:36:26;26.52;;;21.02;;
21705;SDS011;11014;53.076;18.208;2022-08-18T05:41:49;27.20;;;21.10;;
21705;SDS011;11014;53.076;18.208;2022-08-18T05:44:23;24.50;;;20.42;;
21705;SDS011;11014;53.076;18.208;2022-08-18T05:46:55;24.02;;;20.42;;
21705;SDS011;11014;53.076;18.208;2022-08-18T05:49:28;26.08;;;20.58;;
21705;SDS011;11014;53.076;18.208;2022-08-18T05:51:57;24.95;;;21.02;;
21705;SDS011;11014;53.076;18.208;2022-08-18T05:54:55;23.55;;;20.42;;
21705;SDS011;11014;53.076;18.208;2022-08-18T05:57:48;25.92;;;21.25;;
21705;SDS011;11014;53.076;18.208;2022-08-18T06:00:20;23.83;;;20.80;;
21705;SDS011;11014;53.076;18.208;2022-08-18T06:05:20;25.25;;;20.98;;
21705;SDS011;11014;53.076;18.208;2022-08-18T06:07:56;27.00;;;20.33;;
21705;SDS011;11014;53.076;18.208;2022-08-18T06:10:28;24.48;;;20.45;;
21705;SDS011;11014;53.076;18.208;2022-08-18T06:12:58;24.73;;;20.35;;
21705;SDS011;11014;53.076;18.208;2022-08-18T06:18:39;26.02;;;20.52;;
21705;SDS011;11014;53.076;18.208;2022-08-18T06:24:28;25.40;;;20.42;;
21705;SDS011;11014;53.076;18.208;2022-08-18T06:27:35;27.65;;;20.73;;
21705;SDS011;11014;53.076;18.208;2022-08-18T06:35:50;24.98;;;20.42;;
21705;SDS011;11014;53.076;18.208;2022-08-18T06:41:33;25.60;;;20.52;;
21705;SDS011;11014;53.076;18.208;2022-08-18T06:44:21;26.17;;;20.77;;
21705;SDS011;11014;53.076;18.208;2022-08-18T06:47:04;25.73;;;20.35;;
21705;SDS011;11014;53.076;18.208;2022-08-18T06:50:04;24.90;;;19.85;;
21705;SDS011;11014;53.076;18.208;2022-08-18T06:52:39;28.52;;;20.80;;
21705;SDS011;11014;53.076;18.208;2022-08-18T06:55:39;27.77;;;20.60;;
21705;SDS011;11014;53.076;18.208;2022-08-18T07:03:38;27.23;;;20.80;;
21705;SDS011;11014;53.076;18.208;2022-08-18T07:08:46;25.30;;;18.98;;
21705;SDS011;11014;53.076;18.208;2022-08-18T07:13:45;24.15;;;19.70;;
21705;SDS011;11014;53.076;18.208;2022-08-18T07:16:35;22.48;;;18.98;;
21705;SDS011;11014;53.076;18.208;2022-08-18T07:19:26;24.25;;;19.40;;
21705;SDS011;11014;53.076;18.208;2022-08-18T07:22:05;22.80;;;19.98;;
21705;SDS011;11014;53.076;18.208;2022-08-18T07:24:40;27.17;;;19.95;;
21705;SDS011;11014;53.076;18.208;2022-08-18T07:27:13;25.20;;;19.25;;
21705;SDS011;11014;53.076;18.208;2022-08-18T07:29:59;25.05;;;18.80;;
21705;SDS011;11014;53.076;18.208;2022-08-18T07:32:48;21.15;;;18.25;;
21705;SDS011;11014;53.076;18.208;2022-08-18T07:35:38;23.75;;;18.75;;
21705;SDS011;11014;53.076;18.208;2022-08-18T07:41:14;23.33;;;18.92;;
21705;SDS011;11014;53.076;18.208;2022-08-18T07:43:56;23.15;;;18.55;;
21705;SDS011;11014;53.076;18.208;2022-08-18T07:46:35;24.58;;;19.67;;
21705;SDS011;11014;53.076;18.208;2022-08-18T07:49:22;22.00;;;19.38;;
21705;SDS011;11014;53.076;18.208;2022-08-18T07:52:07;20.95;;;17.98;;
21705;SDS011;11014;53.076;18.208;2022-08-18T07:55:09;21.42;;;18.75;;
21705;SDS011;11014;53.076;18.208;2022-08-18T07:58:14;21.35;;;18.75;;
21705;SDS011;11014;53.076;18.208;2022-08-18T08:06:13;20.52;;;18.33;;
21705;SDS011;11014;53.076;18.208;2022-08-18T08:11:34;20.73;;;18.23;;
21705;SDS011;11014;53.076;18.208;2022-08-18T08:14:29;21.65;;;17.98;;
21705;SDS011;11014;53.076;18.208;2022-08-18T08:20:00;20.25;;;17.58;;
21705;SDS011;11014;53.076;18.208;2022-08-18T08:22:38;22.58;;;19.00;;
21705;SDS011;11014;53.076;18.208;2022-08-18T08:25:23;21.38;;;18.92;;
21705;SDS011;11014;53.076;18.208;2022-08-18T08:34:26;24.48;;;19.17;;
21705;SDS011;11014;53.076;18.208;2022-08-18T08:37:14;20.20;;;18.13;;
21705;SDS011;11014;53.076;18.208;2022-08-18T08:39:51;21.88;;;18.05;;
21705;SDS011;11014;53.076;18.208;2022-08-18T08:45:31;20.98;;;18.67;;
21705;SDS011;11014;53.076;18.208;2022-08-18T08:48:07;21.70;;;18.65;;
21705;SDS011;11014;53.076;18.208;2022-08-18T08:50:58;20.58;;;18.48;;
21705;SDS011;11014;53.076;18.208;2022-08-18T08:53:44;22.17;;;18.30;;
21705;SDS011;11014;53.076;18.208;2022-08-18T08:56:18;21.45;;;17.95;;
21705;SDS011;11014;53.076;18.208;2022-08-18T08:58:50;19.95;;;17.90;;
21705;SDS011;11014;53.076;18.208;2022-08-18T09:04:19;20.13;;;17.70;;
21705;SDS011;11014;53.076;18.208;2022-08-18T09:09:52;20.92;;;17.33;;
21705;SDS011;11014;53.076;18.208;2022-08-18T09:18:16;19.65;;;17.65;;
21705;SDS011;11014;53.076;18.208;2022-08-18T09:20:50;21.35;;;18.05;;
21705;SDS011;11014;53.076;18.208;2022-08-18T09:23:31;19.58;;;17.58;;
21705;SDS011;11014;53.076;18.208;2022-08-18T09:26:23;19.80;;;17.70;;
21705;SDS011;11014;53.076;18.208;2022-08-18T09:29:14;19.17;;;17.23;;
21705;SDS011;11014;53.076;18.208;2022-08-18T09:37:26;22.02;;;17.73;;
21705;SDS011;11014;53.076;18.208;2022-08-18T09:40:17;19.60;;;17.60;;
21705;SDS011;11014;53.076;18.208;2022-08-18T09:43:32;20.98;;;17.80;;
21705;SDS011;11014;53.076;18.208;2022-08-18T09:46:05;20.52;;;17.98;;
21705;SDS011;11014;53.076;18.208;2022-08-18T09:48:39;19.80;;;17.30;;
21705;SDS011;11014;53.076;18.208;2022-08-18T09:51:14;19.95;;;17.88;;
21705;SDS011;11014;53.076;18.208;2022-08-18T10:02:08;21.33;;;17.42;;
21705;SDS011;11014;53.076;18.208;2022-08-18T10:04:48;19.70;;;17.17;;
21705;SDS011;11014;53.076;18.208;2022-08-18T10:07:29;18.70;;;16.80;;
21705;SDS011;11014;53.076;18.208;2022-08-18T10:10:21;19.83;;;16.65;;
21705;SDS011;11014;53.076;18.208;2022-08-18T10:13:32;20.40;;;17.05;;
21705;SDS011;11014;53.076;18.208;2022-08-18T10:20:03;19.38;;;16.50;;
21705;SDS011;11014;53.076;18.208;2022-08-18T10:22:45;18.50;;;16.67;;
21705;SDS011;11014;53.076;18.208;2022-08-18T10:28:04;18.20;;;16.30;;
21705;SDS011;11014;53.076;18.208;2022-08-18T10:39:29;19.13;;;16.52;;
21705;SDS011;11014;53.076;18.208;2022-08-18T10:42:22;18.17;;;15.70;;
21705;SDS011;11014;53.076;18.208;2022-08-18T10:50:51;20.35;;;15.27;;
21705;SDS011;11014;53.076;18.208;2022-08-18T10:53:41;16.77;;;14.90;;
21705;SDS011;11014;53.076;18.208;2022-08-18T10:56:27;18.27;;;16.33;;
21705;SDS011;11014;53.076;18.208;2022-08-18T11:04:26;16.85;;;15.02;;
21705;SDS011;11014;53.076;18.208;2022-08-18T11:07:02;20.73;;;15.13;;
21705;SDS011;11014;53.076;18.208;2022-08-18T11:09:36;20.23;;;15.95;;
21705;SDS011;11014;53.076;18.208;2022-08-18T11:12:10;19.73;;;15.25;;
21705;SDS011;11014;53.076;18.208;2022-08-18T11:14:50;16.67;;;14.93;;
21705;SDS011;11014;53.076;18.208;2022-08-18T11:17:57;21.27;;;14.70;;
21705;SDS011;11014;53.076;18.208;2022-08-18T11:20:28;18.50;;;15.00;;
21705;SDS011;11014;53.076;18.208;2022-08-18T11:23:00;16.77;;;15.02;;
21705;SDS011;11014;53.076;18.208;2022-08-18T11:25:35;18.27;;;15.32;;
21705;SDS011;11014;53.076;18.208;2022-08-18T11:28:19;17.40;;;15.45;;
21705;SDS011;11014;53.076;18.208;2022-08-18T11:30:57;19.52;;;15.20;;
21705;SDS011;11014;53.076;18.208;2022-08-18T11:33:26;17.77;;;14.32;;
21705;SDS011;11014;53.076;18.208;2022-08-18T11:35:55;19.83;;;15.13;;
21705;SDS011;11014;53.076;18.208;2022-08-18T11:38:28;18.80;;;14.07;;
21705;SDS011;11014;53.076;18.208;2022-08-18T11:43:56;18.00;;;14.48;;
21705;SDS011;11014;53.076;18.208;2022-08-18T11:46:30;17.83;;;14.40;;
21705;SDS011;11014;53.076;18.208;2022-08-18T11:49:15;16.73;;;14.93;;
21705;SDS011;11014;53.076;18.208;2022-08-18T11:52:00;18.92;;;14.73;;
21705;SDS011;11014;53.076;18.208;2022-08-18T11:54:58;16.73;;;14.50;;
21705;SDS011;11014;53.076;18.208;2022-08-18T11:57:52;17.63;;;14.80;;
21705;SDS011;11014;53.076;18.208;2022-08-18T12:03:22;16.75;;;14.95;;
21705;SDS011;11014;53.076;18.208;2022-08-18T12:05:57;18.77;;;15.55;;
21705;SDS011;11014;53.076;18.208;2022-08-18T12:08:55;20.25;;;15.55;;
21705;SDS011;11014;53.076;18.208;2022-08-18T12:11:29;23.60;;;16.73;;
21705;SDS011;11014;53.076;18.208;2022-08-18T12:16:50;23.80;;;16.73;;
21705;SDS011;11014;53.076;18.208;2022-08-18T12:19:21;22.92;;;16.17;;
21705;SDS011;11014;53.076;18.208;2022-08-18T12:21:53;25.88;;;17.08;;
21705;SDS011;11014;53.076;18.208;2022-08-18T12:24:26;23.75;;;17.67;;
21705;SDS011;11014;53.076;18.208;2022-08-18T12:27:06;26.60;;;17.50;;
21705;SDS011;11014;53.076;18.208;2022-08-18T12:29:52;26.70;;;18.13;;
21705;SDS011;11014;53.076;18.208;2022-08-18T12:32:25;24.73;;;17.38;;
21705;SDS011;11014;53.076;18.208;2022-08-18T12:35:14;26.92;;;17.60;;
21705;SDS011;11014;53.076;18.208;2022-08-18T12:37:48;23.38;;;17.42;;
21705;SDS011;11014;53.076;18.208;2022-08-18T12:40:30;21.67;;;16.85;;
21705;SDS011;11014;53.076;18.208;2022-08-18T12:42:59;24.65;;;17.40;;
21705;SDS011;11014;53.076;18.208;2022-08-18T12:45:28;24.33;;;17.60;;
21705;SDS011;11014;53.076;18.208;2022-08-18T12:47:58;25.35;;;17.20;;
21705;SDS011;11014;53.076;18.208;2022-08-18T12:50:31;25.50;;;17.60;;
21705;SDS011;11014;53.076;18.208;2022-08-18T12:53:06;24.35;;;17.55;;
21705;SDS011;11014;53.076;18.208;2022-08-18T12:55:36;22.60;;;16.80;;
21705;SDS011;11014;53.076;18.208;2022-08-18T12:58:12;19.50;;;16.08;;
21705;SDS011;11014;53.076;18.208;2022-08-18T13:00:41;21.25;;;16.88;;
21705;SDS011;11014;53.076;18.208;2022-08-18T13:03:10;19.98;;;16.20;;
21705;SDS011;11014;53.076;18.208;2022-08-18T13:05:38;25.20;;;16.90;;
21705;SDS011;11014;53.076;18.208;2022-08-18T13:08:08;20.80;;;16.60;;
21705;SDS011;11014;53.076;18.208;2022-08-18T13:11:00;22.35;;;16.55;;
21705;SDS011;11014;53.076;18.208;2022-08-18T13:13:42;19.92;;;16.10;;
21705;SDS011;11014;53.076;18.208;2022-08-18T13:16:11;20.50;;;16.63;;
21705;SDS011;11014;53.076;18.208;2022-08-18T13:18:57;19.23;;;16.10;;
21705;SDS011;11014;53.076;18.208;2022-08-18T13:21:26;17.58;;;15.68;;
21705;SDS011;11014;53.076;18.208;2022-08-18T13:24:08;20.00;;;15.45;;
21705;SDS011;11014;53.076;18.208;2022-08-18T13:26:40;17.33;;;15.57;;
21705;SDS011;11014;53.076;18.208;2022-08-18T13:29:13;18.48;;;16.05;;
21705;SDS011;11014;53.076;18.208;2022-08-18T13:31:45;18.60;;;16.25;;
21705;SDS011;11014;53.076;18.208;2022-08-18T13:34:25;20.65;;;15.68;;
21705;SDS011;11014;53.076;18.208;2022-08-18T13:36:57;19.90;;;15.98;;
21705;SDS011;11014;53.076;18.208;2022-08-18T13:39:25;19.60;;;16.27;;
21705;SDS011;11014;53.076;18.208;2022-08-18T13:42:01;20.55;;;16.30;;
21705;SDS011;11014;53.076;18.208;2022-08-18T13:44:50;19.33;;;15.82;;
21705;SDS011;11014;53.076;18.208;2022-08-18T13:47:24;17.02;;;14.95;;
21705;SDS011;11014;53.076;18.208;2022-08-18T13:49:56;18.73;;;15.43;;
21705;SDS011;11014;53.076;18.208;2022-08-18T13:52:27;20.25;;;15.77;;
21705;SDS011;11014;53.076;18.208;2022-08-18T13:55:12;18.05;;;14.57;;
21705;SDS011;11014;53.076;18.208;2022-08-18T13:57:44;17.38;;;15.27;;
21705;SDS011;11014;53.076;18.208;2022-08-18T14:00:19;16.40;;;14.60;;
21705;SDS011;11014;53.076;18.208;2022-08-18T14:02:58;19.42;;;15.10;;
21705;SDS011;11014;53.076;18.208;2022-08-18T14:05:37;17.02;;;14.85;;
21705;SDS011;11014;53.076;18.208;2022-08-18T14:08:19;18.58;;;15.70;;
21705;SDS011;11014;53.076;18.208;2022-08-18T14:10:48;16.45;;;14.68;;
21705;SDS011;11014;53.076;18.208;2022-08-18T14:13:21;17.95;;;14.68;;
21705;SDS011;11014;53.076;18.208;2022-08-18T14:15:56;17.00;;;15.10;;
21705;SDS011;11014;53.076;18.208;2022-08-18T14:18:29;17.02;;;14.65;;
21705;SDS011;11014;53.076;18.208;2022-08-18T14:20:57;15.93;;;14.23;;
21705;SDS011;11014;53.076;18.208;2022-08-18T14:23:50;16.10;;;14.45;;
21705;SDS011;11014;53.076;18.208;2022-08-18T14:26:41;17.33;;;14.65;;
21705;SDS011;11014;53.076;18.208;2022-08-18T14:29:17;15.80;;;13.68;;
21705;SDS011;11014;53.076;18.208;2022-08-18T14:32:06;16.58;;;14.77;;
21705;SDS011;11014;53.076;18.208;2022-08-18T14:34:40;15.98;;;14.18;;
21705;SDS011;11014;53.076;18.208;2022-08-18T14:37:18;18.23;;;15.10;;
21705;SDS011;11014;53.076;18.208;2022-08-18T14:39:49;16.02;;;14.38;;
21705;SDS011;11014;53.076;18.208;2022-08-18T14:45:00;15.20;;;13.68;;
21705;SDS011;11014;53.076;18.208;2022-08-18T14:47:48;16.30;;;14.35;;
21705;SDS011;11014;53.076;18.208;2022-08-18T14:50:19;15.50;;;13.90;;
21705;SDS011;11014;53.076;18.208;2022-08-18T14:52:52;16.77;;;14.80;;
21705;SDS011;11014;53.076;18.208;2022-08-18T14:55:22;16.15;;;14.38;;
21705;SDS011;11014;53.076;18.208;2022-08-18T14:57:51;16.52;;;14.82;;
21705;SDS011;11014;53.076;18.208;2022-08-18T15:00:21;16.15;;;14.45;;
21705;SDS011;11014;53.076;18.208;2022-08-18T15:02:50;16.00;;;14.40;;
21705;SDS011;11014;53.076;18.208;2022-08-18T15:05:19;15.93;;;14.15;;
21705;SDS011;11014;53.076;18.208;2022-08-18T15:07:51;16.25;;;14.07;;
21705;SDS011;11014;53.076;18.208;2022-08-18T15:10:20;16.70;;;14.40;;
21705;SDS011;11014;53.076;18.208;2022-08-18T15:12:55;16.13;;;13.43;;
21705;SDS011;11014;53.076;18.208;2022-08-18T15:15:25;16.05;;;14.35;;
21705;SDS011;11014;53.076;18.208;2022-08-18T15:18:15;15.82;;;13.93;;
21705;SDS011;11014;53.076;18.208;2022-08-18T15:20:50;15.23;;;13.23;;
21705;SDS011;11014;53.076;18.208;2022-08-18T15:23:57;15.02;;;13.52;;
21705;SDS011;11014;53.076;18.208;2022-08-18T15:26:50;16.15;;;13.43;;
21705;SDS011;11014;53.076;18.208;2022-08-18T15:29:30;15.40;;;13.40;;
21705;SDS011;11014;53.076;18.208;2022-08-18T15:31:58;14.70;;;13.30;;
21705;SDS011;11014;53.076;18.208;2022-08-18T15:34:33;15.13;;;13.55;;
21705;SDS011;11014;53.076;18.208;2022-08-18T15:37:18;15.43;;;13.82;;
21705;SDS011;11014;53.076;18.208;2022-08-18T15:39:58;15.48;;;13.95;;
21705;SDS011;11014;53.076;18.208;2022-08-18T15:42:29;14.77;;;13.38;;
21705;SDS011;11014;53.076;18.208;2022-08-18T15:45:00;16.40;;;13.88;;
21705;SDS011;11014;53.076;18.208;2022-08-18T15:47:41;15.55;;;13.77;;
21705;SDS011;11014;53.076;18.208;2022-08-18T15:50:13;15.18;;;13.55;;
21705;SDS011;11014;53.076;18.208;2022-08-18T15:52:56;15.60;;;13.82;;
21705;SDS011;11014;53.076;18.208;2022-08-18T15:55:29;16.30;;;14.05;;
21705;SDS011;11014;53.076;18.208;2022-08-18T15:58:02;15.20;;;13.60;;
21705;SDS011;11014;53.076;18.208;2022-08-18T16:00:41;15.95;;;13.65;;
21705;SDS011;11014;53.076;18.208;2022-08-18T16:03:13;15.07;;;13.50;;
21705;SDS011;11014;53.076;18.208;2022-08-18T16:05:47;14.70;;;13.20;;
21705;SDS011;11014;53.076;18.208;2022-08-18T16:08:20;14.73;;;12.95;;
21705;SDS011;11014;53.076;18.208;2022-08-18T16:10:51;15.90;;;13.87;;
21705;SDS011;11014;53.076;18.208;2022-08-18T16:13:21;15.40;;;13.77;;
21705;SDS011;11014;53.076;18.208;2022-08-18T16:15:51;14.40;;;12.70;;
21705;SDS011;11014;53.076;18.208;2022-08-18T16:18:20;15.35;;;12.75;;
21705;SDS011;11014;53.076;18.208;2022-08-18T16:20:50;14.05;;;12.65;;
21705;SDS011;11014;53.076;18.208;2022-08-18T16:23:23;14.52;;;12.98;;
21705;SDS011;11014;53.076;18.208;2022-08-18T16:25:51;14.60;;;13.15;;
21705;SDS011;11014;53.076;18.208;2022-08-18T16:28:29;14.70;;;12.98;;
21705;SDS011;11014;53.076;18.208;2022-08-18T16:31:02;15.27;;;13.70;;
21705;SDS011;11014;53.076;18.208;2022-08-18T16:33:31;14.50;;;13.10;;
21705;SDS011;11014;53.076;18.208;2022-08-18T16:36:05;15.07;;;13.57;;
21705;SDS011;11014;53.076;18.208;2022-08-18T16:38:35;14.35;;;12.80;;
21705;SDS011;11014;53.076;18.208;2022-08-18T16:41:05;14.13;;;12.82;;
21705;SDS011;11014;53.076;18.208;2022-08-18T16:43:41;14.60;;;13.10;;
21705;SDS011;11014;53.076;18.208;2022-08-18T16:46:11;14.52;;;13.02;;
21705;SDS011;11014;53.076;18.208;2022-08-18T16:48:44;15.30;;;13.20;;
21705;SDS011;11014;53.076;18.208;2022-08-18T16:51:14;13.70;;;12.30;;
21705;SDS011;11014;53.076;18.208;2022-08-18T16:53:44;14.30;;;12.90;;
21705;SDS011;11014;53.076;18.208;2022-08-18T16:56:15;14.32;;;12.82;;
21705;SDS011;11014;53.076;18.208;2022-08-18T16:58:45;14.18;;;12.68;;
21705;SDS011;11014;53.076;18.208;2022-08-18T17:01:34;14.65;;;13.15;;
21705;SDS011;11014;53.076;18.208;2022-08-18T17:04:22;14.32;;;12.95;;
21705;SDS011;11014;53.076;18.208;2022-08-18T17:06:53;13.85;;;12.45;;